createdAt,value
2023-04-10T00:00:04.134Z,14.30
2023-04-10T00:02:31.430Z,12.70
2023-04-10T00:04:59.123Z,12.33
2023-04-10T00:07:26.484Z,11.63
2023-04-10T00:09:53.628Z,13.03
2023-04-10T00:12:20.979Z,12.13
2023-04-10T00:14:47.874Z,12.90
2023-04-10T00:17:14.723Z,13.60
2023-04-10T00:19:41.551Z,13.80
2023-04-10T00:22:08.385Z,12.70
2023-04-10T00:24:35.322Z,11.83
2023-04-10T00:27:02.198Z,12.60
2023-04-10T00:29:29.085Z,11.90
2023-04-10T00:31:55.962Z,12.27
2023-04-10T00:34:22.790Z,11.40
2023-04-10T00:36:49.662Z,11.37
2023-04-10T00:39:16.525Z,12.13
2023-04-10T00:41:43.465Z,12.90
2023-04-10T00:44:10.400Z,12.77
2023-04-10T00:46:39.079Z,12.93
2023-04-10T00:49:06.437Z,11.90
2023-04-10T00:51:33.782Z,13.17
2023-04-10T00:54:02.274Z,11.93
2023-04-10T00:56:32.166Z,11.67
2023-04-10T00:58:59.091Z,12.53
2023-04-10T01:01:26.251Z,13.43
2023-04-10T01:03:54.556Z,11.90
2023-04-10T01:06:21.596Z,12.93
2023-04-10T01:09:31.949Z,13.17
2023-04-10T01:12:12.287Z,13.37
2023-04-10T01:15:04.089Z,14.03
2023-04-10T01:17:59.943Z,14.50
2023-04-10T01:20:31.969Z,13.93
2023-04-10T01:23:12.610Z,15.00
2023-04-10T01:25:51.015Z,13.67
2023-04-10T01:29:01.594Z,13.90
2023-04-10T01:32:11.874Z,13.20
2023-04-10T01:34:47.927Z,13.87
2023-04-10T01:37:24.702Z,15.63
2023-04-10T01:39:59.650Z,13.40
2023-04-10T01:42:32.933Z,12.60
2023-04-10T01:45:01.251Z,12.13
2023-04-10T01:47:28.828Z,11.60
2023-04-10T01:49:56.774Z,12.23
2023-04-10T01:52:24.893Z,14.93
2023-04-10T01:54:53.280Z,13.63
2023-04-10T01:57:20.427Z,14.07
2023-04-10T01:59:47.412Z,14.10
2023-04-10T02:02:14.323Z,14.50
2023-04-10T02:04:41.350Z,13.47
2023-04-10T02:07:23.964Z,13.53
2023-04-10T02:10:15.568Z,13.03
2023-04-10T02:12:53.542Z,13.57
2023-04-10T02:15:23.729Z,12.80
2023-04-10T02:17:52.289Z,12.37
2023-04-10T02:20:19.640Z,13.47
2023-04-10T02:22:47.225Z,13.30
2023-04-10T02:25:14.939Z,12.90
2023-04-10T02:27:42.381Z,14.17
2023-04-10T02:30:09.662Z,12.90
2023-04-10T02:32:36.934Z,13.87
2023-04-10T02:35:04.441Z,13.43
2023-04-10T02:37:31.764Z,14.53
2023-04-10T02:39:58.597Z,14.53
2023-04-10T02:42:25.432Z,12.47
2023-04-10T02:44:52.239Z,14.10
2023-04-10T02:47:19.145Z,13.50
2023-04-10T02:49:46.075Z,14.83
2023-04-10T02:52:13.002Z,14.67
2023-04-10T02:54:40.336Z,14.90
2023-04-10T02:57:07.332Z,15.40
2023-04-10T02:59:34.211Z,16.17
2023-04-10T03:02:01.162Z,15.37
2023-04-10T03:04:29.082Z,15.43
2023-04-10T03:06:56.105Z,16.10
2023-04-10T03:09:22.912Z,16.50
2023-04-10T03:11:49.750Z,16.93
2023-04-10T03:14:17.127Z,16.00
2023-04-10T03:16:44.233Z,17.30
2023-04-10T03:19:12.773Z,16.80
2023-04-10T03:21:39.695Z,16.07
2023-04-10T03:24:07.134Z,17.77
2023-04-10T03:26:33.932Z,16.40
2023-04-10T03:29:00.867Z,16.83
2023-04-10T03:31:28.079Z,16.70
2023-04-10T03:33:55.200Z,17.03
2023-04-10T03:36:22.233Z,16.00
2023-04-10T03:38:49.162Z,15.67
2023-04-10T03:41:15.985Z,16.60
2023-04-10T03:43:42.777Z,17.03
2023-04-10T03:46:09.644Z,15.07
2023-04-10T03:48:36.453Z,16.10
2023-04-10T03:51:03.531Z,16.37
2023-04-10T03:53:30.422Z,16.33
2023-04-10T03:55:57.350Z,17.90
2023-04-10T03:58:24.201Z,16.20
2023-04-10T04:00:51.566Z,17.33
2023-04-10T04:03:18.619Z,17.30
2023-04-10T04:05:45.820Z,16.63
2023-04-10T04:08:13.998Z,17.57
2023-04-10T04:10:40.917Z,18.33
2023-04-10T04:13:07.732Z,16.80
2023-04-10T04:15:34.635Z,18.23
2023-04-10T04:18:01.494Z,17.93
2023-04-10T04:20:28.586Z,17.13
2023-04-10T04:22:55.540Z,17.83
2023-04-10T04:25:22.448Z,18.27
2023-04-10T04:27:49.251Z,16.80
2023-04-10T04:30:16.254Z,17.43
2023-04-10T04:32:43.151Z,18.33
2023-04-10T04:35:10.747Z,16.80
2023-04-10T04:37:37.600Z,17.33
2023-04-10T04:40:04.964Z,17.83
2023-04-10T04:42:31.734Z,17.73
2023-04-10T04:44:58.545Z,17.47
2023-04-10T04:47:25.655Z,18.13
2023-04-10T04:49:52.562Z,18.27
2023-04-10T04:52:19.392Z,17.43
2023-04-10T04:54:46.195Z,18.37
2023-04-10T04:57:13.053Z,17.23
2023-04-10T04:59:39.850Z,18.63
2023-04-10T05:02:06.989Z,18.23
2023-04-10T05:04:33.930Z,17.53
2023-04-10T05:07:01.005Z,17.43
2023-04-10T05:09:27.795Z,18.53
2023-04-10T05:11:54.751Z,17.37
2023-04-10T05:14:22.253Z,16.33
2023-04-10T05:16:49.114Z,16.57
2023-04-10T05:19:16.228Z,17.73
2023-04-10T05:21:43.353Z,16.43
2023-04-10T05:24:10.415Z,16.57
2023-04-10T05:26:37.446Z,17.17
2023-04-10T05:29:04.815Z,15.97
2023-04-10T05:31:31.793Z,15.27
2023-04-10T05:33:58.709Z,15.93
2023-04-10T05:36:25.605Z,16.07
2023-04-10T05:38:52.892Z,15.37
2023-04-10T05:41:20.058Z,15.50
2023-04-10T05:43:46.879Z,15.70
2023-04-10T05:46:13.761Z,14.60
2023-04-10T05:48:40.875Z,13.70
2023-04-10T05:51:07.962Z,12.93
2023-04-10T05:53:35.132Z,13.37
2023-04-10T05:56:04.980Z,16.33
2023-04-10T05:58:31.865Z,16.30
2023-04-10T06:00:58.796Z,19.53
2023-04-10T06:03:27.705Z,18.40
2023-04-10T06:05:56.069Z,18.63
2023-04-10T06:08:22.949Z,18.93
2023-04-10T06:10:49.830Z,18.87
2023-04-10T06:13:16.712Z,17.80
2023-04-10T06:15:43.581Z,18.30
2023-04-10T06:18:10.472Z,17.13
2023-04-10T06:20:37.291Z,17.40
2023-04-10T06:23:04.142Z,18.33
2023-04-10T06:25:31.011Z,17.20
2023-04-10T06:27:58.102Z,18.13
2023-04-10T06:30:25.002Z,17.23
2023-04-10T06:32:51.861Z,18.20
2023-04-10T06:35:18.771Z,18.07
2023-04-10T06:37:45.940Z,16.07
2023-04-10T06:40:16.090Z,18.10
2023-04-10T06:42:43.242Z,16.60
2023-04-10T06:45:10.583Z,17.10
2023-04-10T06:47:37.634Z,16.27
2023-04-10T06:50:04.951Z,16.17
2023-04-10T06:52:32.700Z,16.07
2023-04-10T06:54:59.841Z,17.10
2023-04-10T06:57:26.707Z,15.27
2023-04-10T06:59:53.614Z,16.03
2023-04-10T07:02:20.862Z,14.10
2023-04-10T07:04:47.776Z,15.47
2023-04-10T07:07:15.862Z,14.50
2023-04-10T07:09:42.915Z,13.57
2023-04-10T07:12:09.740Z,13.80
2023-04-10T07:14:36.686Z,12.57
2023-04-10T07:17:03.850Z,12.60
2023-04-10T07:19:31.325Z,12.50
2023-04-10T07:21:58.208Z,12.27
2023-04-10T07:24:25.192Z,13.60
2023-04-10T07:26:52.097Z,12.80
2023-04-10T07:29:20.988Z,12.27
2023-04-10T07:31:48.048Z,12.33
2023-04-10T07:34:15.067Z,12.57
2023-04-10T07:36:41.891Z,12.47
2023-04-10T07:39:08.704Z,12.10
2023-04-10T07:41:35.881Z,11.57
2023-04-10T07:44:02.734Z,11.93
2023-04-10T07:46:29.581Z,11.37
2023-04-10T07:48:56.652Z,12.13
2023-04-10T07:51:23.952Z,11.30
2023-04-10T07:53:50.807Z,10.63
2023-04-10T07:56:19.504Z,10.30
2023-04-10T07:58:47.467Z,10.43
2023-04-10T08:01:15.721Z,11.20
2023-04-10T08:03:45.620Z,10.90
2023-04-10T08:06:12.899Z,9.90
2023-04-10T08:08:42.090Z,9.57
2023-04-10T08:11:29.783Z,9.83
2023-04-10T08:14:01.603Z,9.87
2023-04-10T08:16:36.198Z,9.33
2023-04-10T08:19:03.768Z,9.20
2023-04-10T08:21:32.191Z,8.90
2023-04-10T08:24:01.811Z,9.17
2023-04-10T08:26:29.395Z,8.67
2023-04-10T08:28:59.864Z,9.07
2023-04-10T08:31:29.032Z,9.20
2023-04-10T08:33:57.277Z,9.23
2023-04-10T08:36:24.684Z,9.67
2023-04-10T08:38:51.576Z,9.13
2023-04-10T08:41:19.960Z,9.93
2023-04-10T08:43:47.507Z,8.60
2023-04-10T08:46:15.123Z,9.53
2023-04-10T08:49:03.284Z,10.07
2023-04-10T08:51:39.982Z,9.30
2023-04-10T08:54:11.872Z,10.23
2023-04-10T08:56:41.757Z,10.57
2023-04-10T08:59:09.255Z,9.20
2023-04-10T09:01:36.439Z,9.30
2023-04-10T09:04:03.603Z,10.30
2023-04-10T09:06:31.493Z,9.43
2023-04-10T09:11:52.555Z,9.70
2023-04-10T09:14:36.460Z,9.70
2023-04-10T09:17:20.327Z,9.47
2023-04-10T09:19:52.730Z,9.60
2023-04-10T09:22:36.343Z,9.80
2023-04-10T09:25:04.724Z,8.73
2023-04-10T09:27:37.386Z,9.53
2023-04-10T09:30:06.478Z,9.00
2023-04-10T09:32:46.457Z,9.23
2023-04-10T09:35:16.718Z,9.10
2023-04-10T09:37:46.619Z,8.70
2023-04-10T09:40:25.149Z,9.23
2023-04-10T09:42:53.354Z,8.03
2023-04-10T09:45:20.730Z,8.73
2023-04-10T09:48:08.501Z,8.63
2023-04-10T09:50:40.826Z,8.03
2023-04-10T09:53:19.255Z,9.40
2023-04-10T09:55:48.055Z,8.43
2023-04-10T09:58:16.402Z,8.23
2023-04-10T10:00:49.240Z,8.57
2023-04-10T10:03:19.703Z,7.83
2023-04-10T10:05:52.456Z,8.37
2023-04-10T10:08:20.001Z,8.97
2023-04-10T10:10:55.926Z,7.87
2023-04-10T10:13:41.218Z,8.10
2023-04-10T10:16:33.743Z,8.93
2023-04-10T10:19:10.785Z,7.63
2023-04-10T10:21:39.077Z,7.80
2023-04-10T10:24:09.457Z,7.97
2023-04-10T10:26:40.074Z,8.27
2023-04-10T10:29:11.095Z,8.77
2023-04-10T10:31:38.825Z,8.67
2023-04-10T10:34:09.173Z,8.13
2023-04-10T10:36:37.289Z,8.30
2023-04-10T10:39:29.750Z,7.63
2023-04-10T10:42:10.832Z,8.97
2023-04-10T10:45:11.637Z,8.23
2023-04-10T10:47:54.379Z,8.40
2023-04-10T10:50:24.270Z,8.40
2023-04-10T10:52:54.029Z,8.43
2023-04-10T10:55:36.428Z,7.73
2023-04-10T10:58:07.749Z,8.17
2023-04-10T11:00:52.933Z,7.97
2023-04-10T11:03:19.815Z,8.33
2023-04-10T11:05:58.649Z,8.10
2023-04-10T11:08:42.426Z,8.20
2023-04-10T11:11:15.769Z,8.10
2023-04-10T11:13:57.587Z,7.77
2023-04-10T11:16:44.215Z,8.07
2023-04-10T11:19:19.027Z,7.80
2023-04-10T11:22:05.268Z,7.73
2023-04-10T11:24:57.477Z,8.93
2023-04-10T11:27:45.837Z,8.40
2023-04-10T11:30:48.307Z,8.03
2023-04-10T11:33:19.119Z,7.83
2023-04-10T11:35:47.029Z,8.57
2023-04-10T11:38:18.088Z,8.10
2023-04-10T11:41:04.343Z,7.37
2023-04-10T11:43:32.142Z,8.33
2023-04-10T11:46:04.669Z,7.13
2023-04-10T11:48:32.403Z,7.13
2023-04-10T11:51:01.696Z,7.17
2023-04-10T11:53:29.998Z,8.50
2023-04-10T11:55:56.921Z,7.30
2023-04-10T11:58:30.481Z,7.07
2023-04-10T12:00:58.780Z,7.37
2023-04-10T12:03:37.513Z,6.83
2023-04-10T12:06:10.362Z,6.50
2023-04-10T12:08:41.223Z,6.87
2023-04-10T12:11:10.383Z,5.50
2023-04-10T12:13:37.900Z,5.67
2023-04-10T12:16:08.231Z,5.63
2023-04-10T12:18:35.997Z,6.07
2023-04-10T12:21:05.536Z,5.20
2023-04-10T12:23:37.325Z,5.37
2023-04-10T12:26:14.554Z,5.70
2023-04-10T12:28:50.796Z,5.37
2023-04-10T12:31:17.882Z,4.50
2023-04-10T12:33:47.794Z,4.13
2023-04-10T12:36:32.154Z,4.20
2023-04-10T12:39:01.566Z,4.30
2023-04-10T12:41:37.261Z,4.07
2023-04-10T12:44:09.608Z,4.20
2023-04-10T12:46:36.728Z,4.60
2023-04-10T12:49:18.370Z,4.77
2023-04-10T12:51:50.530Z,4.17
2023-04-10T12:54:35.193Z,4.30
2023-04-10T12:57:04.213Z,4.20
2023-04-10T12:59:31.657Z,3.93
2023-04-10T13:01:58.804Z,4.50
2023-04-10T13:04:26.205Z,4.47
2023-04-10T13:06:53.356Z,4.47
2023-04-10T13:09:20.373Z,4.20
2023-04-10T13:11:48.488Z,4.30
2023-04-10T13:14:17.013Z,4.30
2023-04-10T13:16:44.090Z,4.37
2023-04-10T13:19:11.005Z,4.10
2023-04-10T13:21:37.838Z,4.17
2023-04-10T13:24:04.779Z,4.67
2023-04-10T13:26:31.626Z,4.20
2023-04-10T13:28:58.468Z,4.10
2023-04-10T13:31:25.517Z,4.07
2023-04-10T13:33:52.415Z,3.63
2023-04-10T13:36:19.350Z,3.50
2023-04-10T13:38:46.270Z,3.73
2023-04-10T13:41:13.118Z,4.10
2023-04-10T13:43:40.226Z,3.90
2023-04-10T13:46:07.379Z,3.87
2023-04-10T13:48:40.447Z,3.87
2023-04-10T13:51:08.297Z,4.10
2023-04-10T13:53:35.775Z,3.60
2023-04-10T13:56:02.600Z,3.63
2023-04-10T13:58:31.914Z,3.57
2023-04-10T14:00:59.337Z,3.70
2023-04-10T14:03:26.409Z,3.70
2023-04-10T14:05:54.349Z,3.17
2023-04-10T14:08:21.306Z,3.57
2023-04-10T14:10:51.502Z,3.53
2023-04-10T14:13:18.821Z,3.50
2023-04-10T14:15:46.027Z,4.00
2023-04-10T14:18:13.094Z,3.57
2023-04-10T14:20:42.350Z,3.60
2023-04-10T14:23:09.807Z,3.90
2023-04-10T14:25:36.710Z,3.53
2023-04-10T14:28:03.563Z,3.50
2023-04-10T14:30:32.664Z,3.83
2023-04-10T14:32:59.814Z,4.13
2023-04-10T14:35:26.875Z,4.07
2023-04-10T14:37:53.729Z,4.00
2023-04-10T14:40:20.821Z,3.20
2023-04-10T14:42:47.623Z,3.93
2023-04-10T14:45:14.546Z,3.40
2023-04-10T14:47:41.807Z,3.47
2023-04-10T14:50:09.109Z,3.50
2023-04-10T14:52:35.957Z,3.13
2023-04-10T14:55:02.863Z,3.33
2023-04-10T14:57:29.769Z,3.13
2023-04-10T14:59:56.834Z,2.87
2023-04-10T15:02:24.196Z,3.43
2023-04-10T15:04:51.201Z,3.33
2023-04-10T15:07:18.188Z,3.40
2023-04-10T15:09:46.239Z,3.47
2023-04-10T15:12:13.071Z,3.00
2023-04-10T15:14:39.953Z,2.63
2023-04-10T15:17:06.980Z,3.30
2023-04-10T15:19:33.846Z,2.80
2023-04-10T15:22:00.770Z,3.30
2023-04-10T15:24:29.129Z,2.97
2023-04-10T15:26:57.848Z,3.37
2023-04-10T15:29:24.711Z,3.50
2023-04-10T15:31:51.569Z,3.40
2023-04-10T15:34:19.036Z,3.23
2023-04-10T15:36:45.853Z,3.40
2023-04-10T15:39:12.787Z,3.50
2023-04-10T15:41:39.587Z,3.07
2023-04-10T15:44:06.432Z,3.17
2023-04-10T15:46:34.117Z,3.10
2023-04-10T15:49:01.407Z,3.10
2023-04-10T15:51:28.257Z,3.20
2023-04-10T15:53:55.291Z,3.50
2023-04-10T15:56:22.368Z,2.53
2023-04-10T15:58:49.210Z,2.90
2023-04-10T16:01:16.091Z,3.00
2023-04-10T16:03:43.187Z,3.63
2023-04-10T16:06:10.299Z,3.53
2023-04-10T16:08:37.115Z,3.27
2023-04-10T16:11:04.089Z,3.20
2023-04-10T16:13:30.970Z,3.47
2023-04-10T16:15:57.870Z,4.00
2023-04-10T16:18:24.851Z,3.83
2023-04-10T16:20:51.863Z,3.70
2023-04-10T16:23:19.825Z,3.90
2023-04-10T16:25:46.640Z,3.77
2023-04-10T16:28:13.565Z,4.07
2023-04-10T16:30:40.476Z,4.10
2023-04-10T16:33:07.360Z,3.90
2023-04-10T16:35:34.319Z,4.00
2023-04-10T16:38:01.783Z,3.87
2023-04-10T16:40:32.376Z,4.10
2023-04-10T16:43:02.796Z,4.07
2023-04-10T16:45:29.854Z,4.10
2023-04-10T16:47:56.813Z,3.90
2023-04-10T16:50:23.730Z,4.03
2023-04-10T16:52:50.616Z,4.17
2023-04-10T16:55:17.634Z,4.20
2023-04-10T16:57:44.457Z,4.20
2023-04-10T17:00:11.964Z,4.30
2023-04-10T17:02:39.570Z,4.47
2023-04-10T17:05:06.678Z,4.37
2023-04-10T17:07:34.409Z,4.53
2023-04-10T17:10:01.263Z,4.63
2023-04-10T17:12:28.177Z,4.83
2023-04-10T17:14:55.037Z,4.80
2023-04-10T17:17:22.002Z,4.50
2023-04-10T17:19:49.214Z,4.63
2023-04-10T17:22:16.335Z,4.20
2023-04-10T17:24:44.402Z,4.10
2023-04-10T17:27:12.145Z,4.47
2023-04-10T17:29:39.551Z,4.53
2023-04-10T17:32:08.685Z,4.07
2023-04-10T17:34:36.145Z,4.20
2023-04-10T17:37:03.109Z,4.23
2023-04-10T17:39:30.059Z,4.27
2023-04-10T17:41:57.192Z,4.10
2023-04-10T17:44:24.196Z,4.57
2023-04-10T17:46:51.114Z,4.20
2023-04-10T17:49:17.996Z,4.20
2023-04-10T17:51:44.888Z,4.50
2023-04-10T17:54:11.776Z,4.13
2023-04-10T17:56:38.722Z,4.40
2023-04-10T17:59:05.611Z,4.47
2023-04-10T18:01:32.524Z,4.87
2023-04-10T18:04:00.376Z,4.10
2023-04-10T18:06:27.561Z,4.30
2023-04-10T18:08:58.184Z,4.03
2023-04-10T18:11:25.284Z,4.20
2023-04-10T18:13:52.362Z,3.90
2023-04-10T18:16:19.281Z,4.57
2023-04-10T18:18:46.166Z,4.30
2023-04-10T18:21:13.698Z,3.90
2023-04-10T18:23:40.666Z,4.00
2023-04-10T18:26:07.773Z,4.00
2023-04-10T18:28:35.838Z,4.33
2023-04-10T18:31:02.778Z,4.40
2023-04-10T18:33:29.724Z,4.03
2023-04-10T18:35:59.268Z,4.50
2023-04-10T18:38:26.765Z,4.30
2023-04-10T18:40:57.772Z,4.37
2023-04-10T18:43:25.546Z,4.50
2023-04-10T18:45:52.544Z,4.00
2023-04-10T18:48:19.503Z,4.70
2023-04-10T18:50:46.360Z,4.90
2023-04-10T18:53:13.186Z,4.50
2023-04-10T18:55:39.974Z,5.17
2023-04-10T18:58:06.843Z,4.87
2023-04-10T19:00:34.247Z,4.67
2023-04-10T19:03:01.306Z,5.10
2023-04-10T19:05:32.622Z,5.23
2023-04-10T19:08:04.728Z,5.23
2023-04-10T19:10:32.674Z,4.97
2023-04-10T19:12:59.745Z,5.10
2023-04-10T19:15:27.450Z,5.00
2023-04-10T19:17:55.046Z,5.20
2023-04-10T19:20:50.892Z,6.07
2023-04-10T19:23:09.648Z,5.70
2023-04-10T19:25:36.502Z,5.73
2023-04-10T19:28:03.668Z,5.33
2023-04-10T19:30:30.639Z,5.73
2023-04-10T19:32:57.618Z,6.00
2023-04-10T19:35:24.856Z,6.00
2023-04-10T19:37:51.683Z,5.80
2023-04-10T19:40:19.422Z,6.47
2023-04-10T19:42:46.326Z,6.60
2023-04-10T19:45:14.943Z,6.40
2023-04-10T19:47:41.821Z,6.53
2023-04-10T19:50:09.076Z,6.70
2023-04-10T19:52:36.102Z,6.47
2023-04-10T19:55:02.988Z,6.53
2023-04-10T19:57:29.853Z,7.13
2023-04-10T19:59:56.772Z,6.60
2023-04-10T20:02:23.751Z,7.10
2023-04-10T20:04:50.903Z,7.10
2023-04-10T20:07:17.721Z,7.00
2023-04-10T20:09:44.612Z,7.80
2023-04-10T20:12:11.429Z,7.37
2023-04-10T20:14:38.510Z,6.90
2023-04-10T20:17:05.349Z,7.87
2023-04-10T20:19:32.262Z,7.93
2023-04-10T20:22:01.540Z,7.97
2023-04-10T20:24:29.141Z,7.67
2023-04-10T20:26:57.198Z,8.27
2023-04-10T20:29:23.999Z,7.00
2023-04-10T20:31:50.878Z,8.10
2023-04-10T20:34:17.693Z,7.50
2023-04-10T20:36:44.582Z,7.53
2023-04-10T20:39:11.397Z,7.67
2023-04-10T20:41:38.185Z,7.83
2023-04-10T20:44:05.017Z,7.30
2023-04-10T20:46:31.886Z,7.97
2023-04-10T20:48:59.245Z,7.10
2023-04-10T20:51:29.920Z,7.63
2023-04-10T20:53:56.767Z,7.70
2023-04-10T20:56:32.835Z,7.47
2023-04-10T20:59:03.609Z,7.27
2023-04-10T21:01:30.716Z,7.07
2023-04-10T21:03:58.686Z,7.40
2023-04-10T21:06:26.517Z,8.83
2023-04-10T21:08:53.644Z,7.93
2023-04-10T21:11:22.056Z,7.73
2023-04-10T21:13:49.313Z,8.30
2023-04-10T21:16:16.328Z,7.90
2023-04-10T21:18:43.243Z,8.03
2023-04-10T21:21:10.538Z,8.07
2023-04-10T21:23:37.341Z,8.37
2023-04-10T21:26:04.226Z,8.53
2023-04-10T21:28:31.087Z,8.60
2023-04-10T21:30:57.942Z,8.47
2023-04-10T21:33:24.816Z,7.87
2023-04-10T21:35:51.721Z,9.50
2023-04-10T21:38:18.531Z,8.77
2023-04-10T21:40:55.056Z,8.47
2023-04-10T21:43:22.345Z,8.90
2023-04-10T21:45:49.466Z,8.63
2023-04-10T21:48:16.468Z,9.13
2023-04-10T21:50:43.428Z,8.60
2023-04-10T21:53:10.371Z,8.47
2023-04-10T21:55:37.473Z,9.23
2023-04-10T21:58:04.836Z,8.73
2023-04-10T22:00:33.189Z,8.60
2023-04-10T22:03:00.363Z,9.10
2023-04-10T22:05:27.597Z,9.23
2023-04-10T22:07:54.975Z,9.10
2023-04-10T22:10:21.900Z,9.37
2023-04-10T22:12:49.133Z,9.63
2023-04-10T22:15:17.070Z,9.13
2023-04-10T22:17:43.989Z,9.60
2023-04-10T22:20:11.209Z,9.47
2023-04-10T22:22:38.061Z,10.13
2023-04-10T22:25:05.502Z,9.67
2023-04-10T22:27:33.404Z,10.23
2023-04-10T22:30:03.777Z,10.53
2023-04-10T22:32:32.122Z,9.87
2023-04-10T22:34:59.958Z,9.67
2023-04-10T22:37:27.595Z,9.37
2023-04-10T22:39:56.091Z,9.30
2023-04-10T22:42:23.663Z,9.60
2023-04-10T22:44:50.636Z,9.73
2023-04-10T22:47:17.954Z,10.67
2023-04-10T22:49:45.260Z,10.03
2023-04-10T22:52:16.169Z,10.53
2023-04-10T22:54:43.039Z,10.37
2023-04-10T22:57:10.351Z,10.20
2023-04-10T22:59:37.909Z,10.20
2023-04-10T23:02:04.921Z,10.60
2023-04-10T23:04:32.056Z,10.83
2023-04-10T23:06:59.230Z,9.80
2023-04-10T23:09:26.068Z,9.67
2023-04-10T23:11:52.897Z,9.90
2023-04-10T23:14:20.306Z,9.87
2023-04-10T23:16:47.168Z,9.70
2023-04-10T23:19:14.148Z,8.90
2023-04-10T23:21:41.115Z,8.80
2023-04-10T23:24:08.069Z,10.07
2023-04-10T23:26:34.970Z,9.97
2023-04-10T23:29:02.012Z,9.87
2023-04-10T23:31:28.851Z,9.33
2023-04-10T23:33:55.776Z,9.70
2023-04-10T23:36:22.578Z,9.60
2023-04-10T23:38:49.458Z,9.63
2023-04-10T23:41:16.314Z,9.37
2023-04-10T23:43:43.819Z,9.60
2023-04-10T23:46:10.648Z,10.17
2023-04-10T23:48:37.520Z,9.97
2023-04-10T23:51:08.659Z,9.93
2023-04-10T23:53:35.515Z,9.97
2023-04-10T23:56:02.326Z,10.30
2023-04-10T23:58:29.204Z,10.73
